Time;durP1;ratioP1;P1;durP2;ratioP2;P2;SDS_P1;SDS_P2;PMS_P1;PMS_P2;Temp;Humidity;BMP_temperature;BMP_pressure;BME280_temperature;BME280_humidity;BME280_pressure;Samples;Min_cycle;Max_cycle;Signal;HPM_P1;HPM_P2
2023/02/17 00:01:22;;;;;;;25.60;16.40;;;8.50;99.90;;;;;;5042731;28;20527;-69
2023/02/17 00:03:49;;;;;;;24.77;16.80;;;8.50;99.90;;;;;;5032136;28;20868;-69
2023/02/17 00:06:17;;;;;;;25.37;16.30;;;8.40;99.90;;;;;;5036033;28;20425;-69
2023/02/17 00:08:43;;;;;;;25.57;15.93;;;8.30;99.90;;;;;;5037653;28;20490;-69
2023/02/17 00:11:08;;;;;;;28.87;16.60;;;8.20;99.90;;;;;;5035230;28;20415;-68
2023/02/17 00:13:34;;;;;;;24.93;16.50;;;8.20;99.90;;;;;;5038172;28;20464;-69
2023/02/17 00:16:24;;;;;;;25.77;18.03;;;8.10;99.90;;;;;;5022889;28;20231;-68
2023/02/17 00:19:00;;;;;;;27.40;17.63;;;8.00;99.90;;;;;;5011769;28;20421;-68
2023/02/17 00:21:29;;;;;;;25.53;16.17;;;7.90;99.90;;;;;;5017584;28;20495;-68
2023/02/17 00:23:56;;;;;;;26.87;18.70;;;7.90;99.90;;;;;;5034986;28;20520;-68
2023/02/17 00:26:22;;;;;;;26.93;18.80;;;7.90;99.90;;;;;;5028845;28;20431;-67
2023/02/17 00:28:48;;;;;;;26.50;17.27;;;7.80;99.90;;;;;;5033044;28;20837;-68
2023/02/17 00:31:18;;;;;;;27.30;16.90;;;7.80;99.90;;;;;;5034757;28;20182;-67
2023/02/17 00:33:44;;;;;;;26.53;18.33;;;7.80;99.90;;;;;;5037220;28;20528;-70
2023/02/17 00:36:13;;;;;;;29.50;18.57;;;7.80;99.90;;;;;;5038373;28;20446;-67
2023/02/17 00:38:39;;;;;;;31.83;17.73;;;7.80;99.90;;;;;;5044004;28;20476;-68
2023/02/17 00:41:04;;;;;;;26.60;17.97;;;7.80;99.90;;;;;;5030746;28;20418;-68
2023/02/17 00:43:30;;;;;;;30.70;20.70;;;7.80;99.90;;;;;;5044570;28;20447;-69
2023/02/17 00:45:56;;;;;;;26.50;17.83;;;7.80;99.90;;;;;;5031603;28;20274;-69
2023/02/17 00:48:22;;;;;;;31.57;18.97;;;7.80;99.90;;;;;;5029441;28;20458;-68
2023/02/17 00:50:47;;;;;;;27.00;18.73;;;7.80;99.90;;;;;;5036826;28;20694;-69
2023/02/17 00:53:13;;;;;;;27.13;18.30;;;7.80;99.90;;;;;;5032596;28;20467;-68
2023/02/17 00:55:39;;;;;;;27.00;17.70;;;7.80;99.90;;;;;;5045690;28;20177;-68
2023/02/17 00:58:04;;;;;;;27.30;17.57;;;7.80;99.90;;;;;;5040272;28;20593;-68
2023/02/17 01:00:30;;;;;;;27.40;20.03;;;7.80;99.90;;;;;;5048379;28;20180;-68
2023/02/17 01:02:55;;;;;;;32.73;19.00;;;7.80;99.90;;;;;;5043538;28;20550;-69
2023/02/17 01:05:21;;;;;;;27.47;17.67;;;7.80;99.90;;;;;;5032303;28;20291;-69
2023/02/17 01:07:46;;;;;;;27.57;17.63;;;7.70;99.90;;;;;;5041268;28;20182;-68
2023/02/17 01:10:12;;;;;;;26.37;18.23;;;7.70;99.90;;;;;;5042117;28;20218;-69
2023/02/17 01:12:38;;;;;;;29.60;18.70;;;7.70;99.90;;;;;;5047667;28;20203;-69
2023/02/17 01:15:04;;;;;;;30.57;18.30;;;7.80;99.90;;;;;;5034644;28;20288;-69
2023/02/17 01:17:30;;;;;;;25.40;16.27;;;7.80;99.90;;;;;;5040898;28;20605;-69
2023/02/17 01:19:56;;;;;;;27.80;16.23;;;7.80;99.90;;;;;;5041307;28;20504;-70
2023/02/17 01:22:22;;;;;;;28.23;16.90;;;7.80;99.90;;;;;;5033299;28;20310;-70
2023/02/17 01:24:47;;;;;;;29.37;18.30;;;7.80;99.90;;;;;;5041051;28;20534;-69
2023/02/17 01:27:13;;;;;;;32.70;18.40;;;7.80;99.90;;;;;;5034181;28;20179;-68
2023/02/17 01:29:39;;;;;;;25.03;17.97;;;7.80;99.90;;;;;;5040719;28;20189;-70
2023/02/17 01:32:05;;;;;;;25.73;16.83;;;7.80;99.90;;;;;;5037795;28;20228;-69
2023/02/17 01:34:30;;;;;;;30.50;19.50;;;7.80;99.90;;;;;;5015899;28;20171;-68
2023/02/17 01:36:56;;;;;;;32.07;17.33;;;7.80;99.90;;;;;;5037733;28;20500;-70
2023/02/17 01:39:21;;;;;;;30.20;18.80;;;7.80;99.90;;;;;;5025831;28;20176;-67
2023/02/17 01:41:47;;;;;;;28.40;17.70;;;7.80;99.90;;;;;;5043081;28;20229;-69
2023/02/17 01:44:17;;;;;;;23.87;15.97;;;7.80;99.90;;;;;;5042347;28;20731;-69
2023/02/17 01:46:45;;;;;;;27.07;18.17;;;7.80;99.90;;;;;;5021867;28;20607;-69
2023/02/17 01:49:33;;;;;;;26.23;17.00;;;7.80;99.90;;;;;;5026440;28;20410;-70
2023/02/17 01:52:19;;;;;;;24.13;16.50;;;7.80;99.90;;;;;;5028462;28;20404;-69
2023/02/17 01:54:53;;;;;;;26.93;16.70;;;7.80;99.90;;;;;;5042751;28;20501;-68
2023/02/17 01:57:22;;;;;;;24.67;16.33;;;7.80;99.90;;;;;;5039910;28;20493;-68
2023/02/17 01:59:48;;;;;;;30.50;19.30;;;7.80;99.90;;;;;;5037102;28;20425;-69
2023/02/17 02:02:15;;;;;;;33.27;20.17;;;7.80;99.90;;;;;;5036617;28;20857;-69
2023/02/17 02:04:43;;;;;;;27.03;18.20;;;7.80;99.90;;;;;;5035434;28;20417;-68
2023/02/17 02:07:17;;;;;;;24.03;16.73;;;7.80;99.90;;;;;;5037372;28;20553;-69
2023/02/17 02:09:49;;;;;;;27.73;17.50;;;7.80;99.90;;;;;;5034233;28;20418;-68
2023/02/17 02:12:23;;;;;;;27.67;16.53;;;7.80;99.90;;;;;;5029634;28;20807;-68
2023/02/17 02:14:49;;;;;;;26.10;18.20;;;7.70;99.90;;;;;;5044033;28;20555;-70
2023/02/17 02:17:58;;;;;;;29.07;17.30;;;7.60;99.90;;;;;;5045516;28;20405;-68
2023/02/17 02:20:58;;;;;;;30.33;17.47;;;7.60;99.90;;;;;;5016859;28;20972;-69
2023/02/17 02:23:23;;;;;;;35.30;18.40;;;7.60;99.90;;;;;;5034259;28;20484;-69
2023/02/17 02:25:55;;;;;;;33.90;20.43;;;7.50;99.90;;;;;;5038842;28;20476;-68
2023/02/17 02:28:32;;;;;;;27.83;18.93;;;7.40;99.90;;;;;;5039962;28;20183;-69
2023/02/17 02:31:10;;;;;;;32.97;20.50;;;7.40;99.90;;;;;;5028937;28;20805;-69
2023/02/17 02:33:55;;;;;;;36.70;20.43;;;7.40;99.90;;;;;;5043986;28;20449;-68
2023/02/17 02:36:44;;;;;;;38.87;21.43;;;7.40;99.90;;;;;;5031130;28;20417;-69
2023/02/17 02:39:16;;;;;;;28.77;18.63;;;7.40;99.90;;;;;;5036355;28;20413;-69
2023/02/17 02:41:52;;;;;;;34.90;19.47;;;7.30;99.90;;;;;;5035797;28;20407;-68
2023/02/17 02:44:19;;;;;;;32.10;20.20;;;7.30;99.90;;;;;;5041152;28;20419;-70
2023/02/17 02:46:58;;;;;;;33.13;20.57;;;7.30;99.90;;;;;;5038953;28;20410;-70
2023/02/17 02:49:25;;;;;;;33.47;22.03;;;7.30;99.90;;;;;;5031294;28;20509;-68
2023/02/17 02:52:00;;;;;;;33.20;21.20;;;7.30;99.90;;;;;;5041940;28;20453;-69
2023/02/17 02:54:53;;;;;;;33.20;21.27;;;7.30;99.90;;;;;;5023089;28;20429;-68
2023/02/17 02:57:36;;;;;;;29.57;20.23;;;7.30;99.90;;;;;;5030830;28;20411;-70
2023/02/17 03:00:16;;;;;;;31.77;19.93;;;7.30;99.90;;;;;;5029148;28;20953;-69
2023/02/17 03:02:51;;;;;;;35.17;20.43;;;7.30;99.90;;;;;;5044151;28;20440;-67
2023/02/17 03:06:00;;;;;;;30.30;19.37;;;7.30;99.90;;;;;;5033706;28;20903;-69
2023/02/17 03:08:41;;;;;;;39.70;20.43;;;7.30;99.90;;;;;;5032124;28;20862;-69
2023/02/17 03:11:07;;;;;;;31.73;21.07;;;7.30;99.90;;;;;;5030769;28;20450;-68
2023/02/17 03:13:38;;;;;;;33.63;19.60;;;7.30;99.90;;;;;;5040475;28;20521;-68
2023/02/17 03:16:05;;;;;;;36.60;21.27;;;7.30;99.90;;;;;;5041587;28;20540;-68
2023/02/17 03:18:35;;;;;;;37.40;21.17;;;7.30;99.90;;;;;;5039106;28;20441;-67
2023/02/17 03:21:15;;;;;;;31.17;21.30;;;7.30;99.90;;;;;;5041609;28;20459;-69
2023/02/17 03:23:40;;;;;;;35.80;21.17;;;7.20;99.90;;;;;;5050310;22;20473;-68
2023/02/17 03:26:06;;;;;;;40.10;22.77;;;7.30;99.90;;;;;;5020096;28;20410;-69
2023/02/17 03:28:31;;;;;;;32.90;20.20;;;7.30;99.90;;;;;;5027568;28;20175;-69
2023/02/17 03:30:57;;;;;;;35.43;19.07;;;7.20;99.90;;;;;;5027282;28;20172;-69
2023/02/17 03:33:23;;;;;;;43.47;23.50;;;7.20;99.90;;;;;;5024518;28;20274;-67
2023/02/17 03:35:48;;;;;;;36.50;21.27;;;7.20;99.90;;;;;;5021458;28;20172;-69
2023/02/17 03:38:14;;;;;;;32.03;20.27;;;7.20;99.90;;;;;;5028145;28;20174;-68
2023/02/17 03:40:39;;;;;;;39.27;21.10;;;7.30;99.90;;;;;;5030011;28;20181;-68
2023/02/17 03:43:05;;;;;;;38.13;22.67;;;7.20;99.90;;;;;;5024838;28;20279;-68
2023/02/17 03:45:31;;;;;;;37.73;22.70;;;7.20;99.90;;;;;;5023162;28;20267;-69
2023/02/17 03:47:56;;;;;;;38.37;21.07;;;7.30;99.90;;;;;;5021316;28;20649;-69
2023/02/17 03:50:22;;;;;;;36.30;23.20;;;7.30;99.90;;;;;;5024406;28;20164;-69
2023/02/17 03:52:47;;;;;;;41.30;22.67;;;7.30;99.90;;;;;;5022512;28;20211;-68
2023/02/17 03:55:13;;;;;;;37.60;21.40;;;7.30;99.90;;;;;;5023500;28;20222;-69
2023/02/17 03:57:39;;;;;;;38.63;22.50;;;7.30;99.90;;;;;;5027945;28;20222;-68
2023/02/17 04:00:05;;;;;;;37.13;20.27;;;7.40;99.90;;;;;;5014252;28;20226;-69
2023/02/17 04:02:31;;;;;;;39.60;23.07;;;7.30;99.90;;;;;;5004366;28;20631;-69
2023/02/17 04:04:56;;;;;;;33.73;23.57;;;7.30;99.90;;;;;;5023983;28;20407;-69
2023/02/17 04:07:22;;;;;;;37.70;23.80;;;7.30;99.90;;;;;;5015838;28;20600;-69
2023/02/17 04:09:48;;;;;;;42.20;24.87;;;7.30;99.90;;;;;;5019953;28;20234;-69
2023/02/17 04:12:13;;;;;;;35.20;21.90;;;7.30;99.90;;;;;;5019978;28;20677;-69
2023/02/17 04:14:39;;;;;;;39.60;22.23;;;7.30;99.90;;;;;;5026965;28;20195;-68
2023/02/17 04:17:04;;;;;;;38.37;22.67;;;7.30;99.90;;;;;;5019787;28;20632;-69
2023/02/17 04:19:30;;;;;;;35.60;22.70;;;7.30;99.90;;;;;;5020585;28;20183;-68
2023/02/17 04:21:56;;;;;;;36.70;22.10;;;7.40;99.90;;;;;;5026753;28;20212;-70
2023/02/17 04:24:21;;;;;;;37.30;22.27;;;7.40;99.90;;;;;;5019752;28;20666;-67
2023/02/17 04:26:47;;;;;;;33.60;19.93;;;7.40;99.90;;;;;;5021308;28;20174;-69
2023/02/17 04:29:12;;;;;;;30.50;20.67;;;7.40;99.90;;;;;;5020820;28;20185;-68
2023/02/17 04:31:38;;;;;;;42.57;22.63;;;7.40;99.90;;;;;;5023767;28;20168;-67
2023/02/17 04:34:03;;;;;;;35.33;21.83;;;7.40;99.90;;;;;;5023954;28;20219;-69
2023/02/17 04:36:29;;;;;;;33.23;21.47;;;7.40;99.90;;;;;;5024126;28;20259;-67
2023/02/17 04:38:55;;;;;;;31.30;20.70;;;7.40;99.90;;;;;;5006110;28;20179;-68
2023/02/17 04:41:20;;;;;;;37.27;21.80;;;7.40;99.90;;;;;;5017828;28;20199;-67
2023/02/17 04:43:46;;;;;;;32.63;21.30;;;7.40;99.90;;;;;;5029883;28;20226;-67
2023/02/17 04:46:11;;;;;;;37.87;21.20;;;7.40;99.90;;;;;;5025212;28;20169;-68
2023/02/17 04:48:37;;;;;;;37.60;23.17;;;7.50;99.90;;;;;;5033452;28;20672;-68
2023/02/17 04:51:03;;;;;;;36.77;22.87;;;7.50;99.90;;;;;;5023302;28;20212;-69
2023/02/17 04:53:28;;;;;;;33.60;21.03;;;7.50;99.90;;;;;;5023665;28;20572;-68
2023/02/17 04:55:54;;;;;;;36.60;21.27;;;7.50;99.90;;;;;;5029021;28;20412;-67
2023/02/17 04:58:20;;;;;;;33.17;22.37;;;7.60;99.90;;;;;;5016168;28;20235;-68
2023/02/17 05:00:48;;;;;;;29.87;21.67;;;7.60;99.90;;;;;;5030711;28;20661;-69
2023/02/17 05:03:13;;;;;;;30.30;19.73;;;7.60;99.90;;;;;;5017949;28;20436;-69
2023/02/17 05:05:39;;;;;;;34.27;20.53;;;7.60;99.90;;;;;;5017188;28;20457;-68
2023/02/17 05:08:05;;;;;;;32.80;19.17;;;7.60;99.90;;;;;;5023637;28;20591;-68
2023/02/17 05:10:30;;;;;;;36.60;21.13;;;7.60;99.90;;;;;;5023742;28;20177;-68
2023/02/17 05:12:56;;;;;;;33.60;22.37;;;7.60;99.90;;;;;;5029312;28;20241;-68
2023/02/17 05:15:21;;;;;;;28.50;18.93;;;7.60;99.90;;;;;;4999821;28;20177;-68
2023/02/17 05:17:47;;;;;;;36.40;20.77;;;7.60;99.90;;;;;;5025858;28;20184;-68
2023/02/17 05:20:13;;;;;;;35.27;21.37;;;7.60;99.90;;;;;;5026070;28;20173;-68
2023/02/17 05:22:38;;;;;;;33.23;22.97;;;7.60;99.90;;;;;;5024613;28;20591;-68
2023/02/17 05:25:04;;;;;;;33.93;22.10;;;7.60;99.90;;;;;;5026943;28;20646;-68
2023/02/17 05:27:30;;;;;;;35.53;20.87;;;7.60;99.90;;;;;;5019926;28;20205;-68
2023/02/17 05:29:56;;;;;;;44.17;26.00;;;7.60;99.90;;;;;;5029791;28;20412;-69
2023/02/17 05:32:22;;;;;;;31.80;20.53;;;7.60;99.90;;;;;;5016902;28;20462;-67
2023/02/17 05:34:48;;;;;;;38.03;22.20;;;7.60;99.90;;;;;;5025356;28;20187;-68
2023/02/17 05:37:14;;;;;;;39.57;21.13;;;7.60;99.90;;;;;;5025561;28;20448;-68
2023/02/17 05:39:39;;;;;;;31.97;20.57;;;7.60;99.90;;;;;;5009926;28;20182;-69
2023/02/17 05:42:05;;;;;;;39.77;23.00;;;7.60;99.90;;;;;;5026216;28;20638;-69
2023/02/17 05:44:30;;;;;;;35.90;22.23;;;7.60;99.90;;;;;;5022974;28;20338;-68
2023/02/17 05:46:56;;;;;;;37.53;20.03;;;7.60;99.90;;;;;;5028863;28;20164;-68
2023/02/17 05:49:22;;;;;;;33.97;21.73;;;7.60;99.90;;;;;;5022427;28;20623;-68
2023/02/17 05:51:47;;;;;;;36.83;23.30;;;7.70;99.90;;;;;;5017145;28;20176;-68
2023/02/17 05:54:13;;;;;;;36.53;20.97;;;7.70;99.90;;;;;;5025276;28;20208;-68
2023/02/17 05:56:38;;;;;;;34.80;20.57;;;7.70;99.90;;;;;;5024373;28;20208;-67
2023/02/17 05:59:04;;;;;;;33.40;21.43;;;7.70;99.90;;;;;;5025555;28;20172;-68
2023/02/17 06:01:29;;;;;;;37.10;21.57;;;7.70;99.90;;;;;;5017351;28;20173;-68
2023/02/17 06:03:55;;;;;;;41.87;23.63;;;7.70;99.90;;;;;;5020524;28;20219;-69
2023/02/17 06:06:21;;;;;;;37.73;22.63;;;7.70;99.90;;;;;;5024175;28;20180;-67
2023/02/17 06:08:46;;;;;;;32.37;20.00;;;7.70;99.90;;;;;;5024611;28;20386;-68
2023/02/17 06:11:12;;;;;;;32.43;21.20;;;7.70;99.90;;;;;;5025393;28;20171;-68
2023/02/17 06:13:38;;;;;;;45.93;22.60;;;7.70;99.90;;;;;;5021173;28;20676;-68
2023/02/17 06:16:04;;;;;;;36.10;22.70;;;7.70;99.90;;;;;;5025051;28;20202;-68
2023/02/17 06:18:29;;;;;;;37.50;20.80;;;7.70;99.90;;;;;;5016947;28;20633;-68
2023/02/17 06:20:56;;;;;;;34.33;21.93;;;7.70;99.90;;;;;;5024920;28;20482;-68
2023/02/17 06:23:23;;;;;;;38.10;24.93;;;7.70;99.90;;;;;;5023814;28;20211;-68
2023/02/17 06:25:49;;;;;;;41.70;22.17;;;7.70;99.90;;;;;;5016573;28;20931;-67
2023/02/17 06:28:15;;;;;;;35.50;22.10;;;7.70;99.90;;;;;;5018762;28;20419;-68
2023/02/17 06:30:40;;;;;;;32.27;20.27;;;7.70;99.90;;;;;;5016205;28;20172;-69
2023/02/17 06:33:06;;;;;;;32.97;19.23;;;7.70;99.90;;;;;;5020173;28;20238;-68
2023/02/17 06:35:32;;;;;;;39.50;22.83;;;7.70;99.90;;;;;;5015276;28;20462;-67
2023/02/17 06:37:57;;;;;;;35.30;22.30;;;7.80;99.90;;;;;;5013687;28;20176;-68
2023/02/17 06:40:23;;;;;;;37.37;22.33;;;7.80;99.90;;;;;;5013124;28;20169;-68
2023/02/17 06:42:48;;;;;;;38.03;21.67;;;7.80;99.90;;;;;;5020437;28;20214;-69
2023/02/17 06:45:15;;;;;;;36.93;22.00;;;7.90;99.90;;;;;;5018485;28;20218;-67
2023/02/17 06:47:40;;;;;;;36.17;21.63;;;7.90;99.90;;;;;;5020705;28;20181;-68
2023/02/17 06:50:07;;;;;;;36.57;22.30;;;7.90;99.90;;;;;;5019133;28;20748;-68
2023/02/17 06:52:33;;;;;;;35.50;22.93;;;7.90;99.90;;;;;;5019106;28;20212;-68
2023/02/17 06:54:59;;;;;;;28.87;20.37;;;7.90;99.90;;;;;;5020485;28;20486;-68
2023/02/17 06:57:24;;;;;;;32.17;21.03;;;7.90;99.90;;;;;;5024469;28;20442;-69
2023/02/17 06:59:50;;;;;;;35.40;19.40;;;8.00;99.90;;;;;;5021379;28;20271;-67
2023/02/17 07:02:16;;;;;;;30.23;19.73;;;8.00;99.90;;;;;;5013032;28;20177;-67
2023/02/17 07:04:42;;;;;;;33.13;20.63;;;8.00;99.90;;;;;;5016402;28;20204;-67
2023/02/17 07:07:08;;;;;;;29.67;19.67;;;8.00;99.90;;;;;;5018952;28;20638;-68
2023/02/17 07:09:35;;;;;;;32.80;20.63;;;8.10;99.90;;;;;;5017174;28;20416;-68
2023/02/17 07:12:01;;;;;;;31.60;18.10;;;8.10;99.90;;;;;;5024220;28;20505;-69
2023/02/17 07:14:27;;;;;;;32.20;20.20;;;8.10;99.90;;;;;;5023322;28;20426;-68
2023/02/17 07:16:53;;;;;;;33.27;19.10;;;8.20;99.90;;;;;;5019732;28;20429;-69
2023/02/17 07:19:19;;;;;;;33.70;20.17;;;8.20;99.90;;;;;;5024419;28;20726;-69
2023/02/17 07:21:45;;;;;;;31.70;19.27;;;8.20;99.90;;;;;;5016018;28;20411;-68
2023/02/17 07:24:11;;;;;;;27.67;18.13;;;8.30;99.90;;;;;;5024008;28;20291;-68
2023/02/17 07:26:38;;;;;;;25.67;17.67;;;8.30;99.90;;;;;;5008318;28;20410;-68
2023/02/17 07:29:05;;;;;;;30.40;19.00;;;8.40;99.90;;;;;;5023697;28;20551;-68
2023/02/17 07:31:31;;;;;;;27.47;18.20;;;8.40;99.90;;;;;;5019221;28;20418;-69
2023/02/17 07:33:57;;;;;;;22.00;15.93;;;8.40;99.90;;;;;;5019330;28;20459;-68
2023/02/17 07:36:22;;;;;;;29.50;17.00;;;8.40;99.90;;;;;;5017045;28;20411;-68
2023/02/17 07:38:48;;;;;;;27.90;16.90;;;8.50;99.90;;;;;;5018343;28;20271;-68
2023/02/17 07:41:16;;;;;;;24.40;18.20;;;8.50;99.90;;;;;;5022873;28;20723;-68
2023/02/17 07:43:42;;;;;;;19.70;15.07;;;8.60;99.90;;;;;;5014400;28;20230;-68
2023/02/17 07:46:08;;;;;;;24.73;16.70;;;8.60;99.90;;;;;;5024156;28;20470;-68
2023/02/17 07:48:34;;;;;;;24.97;16.07;;;8.60;99.90;;;;;;5019390;28;20377;-68
2023/02/17 07:51:10;;;;;;;25.20;15.70;;;8.70;99.90;;;;;;5008068;28;20793;-68
2023/02/17 07:53:36;;;;;;;19.63;13.57;;;8.70;99.90;;;;;;5024635;28;20814;-68
2023/02/17 07:56:07;;;;;;;18.73;14.47;;;8.80;99.90;;;;;;5021403;28;20451;-69
2023/02/17 07:58:34;;;;;;;19.53;13.90;;;8.80;99.90;;;;;;5021237;28;20406;-69
2023/02/17 08:01:10;;;;;;;19.10;13.03;;;8.90;99.90;;;;;;5023462;28;20605;-68
2023/02/17 08:03:35;;;;;;;23.30;15.03;;;8.90;99.90;;;;;;5016286;28;20434;-68
2023/02/17 08:06:01;;;;;;;21.60;13.07;;;9.00;99.90;;;;;;5016955;28;20423;-68
2023/02/17 08:13:57;;;;;;;15.27;11.47;;;9.00;99.90;;;;;;5016387;28;20463;-67
2023/02/17 08:16:25;;;;;;;18.50;13.27;;;9.10;99.90;;;;;;5011849;28;20789;-69
2023/02/17 08:18:51;;;;;;;16.30;12.13;;;9.10;99.90;;;;;;5018273;28;20175;-69
2023/02/17 08:21:17;;;;;;;18.13;12.40;;;9.10;99.90;;;;;;5017375;28;20502;-67
2023/02/17 08:23:42;;;;;;;15.67;12.07;;;9.10;99.90;;;;;;5013076;28;21040;-68
2023/02/17 08:26:08;;;;;;;17.10;11.77;;;9.20;99.90;;;;;;4998787;28;20181;-68
2023/02/17 08:28:33;;;;;;;19.47;13.30;;;9.20;99.90;;;;;;4999726;28;20188;-67
2023/02/17 08:31:00;;;;;;;16.60;11.43;;;9.20;99.90;;;;;;5015524;28;20618;-67
2023/02/17 08:33:26;;;;;;;14.03;10.93;;;9.20;99.90;;;;;;5022554;28;20295;-67
2023/02/17 08:35:51;;;;;;;18.80;14.87;;;9.20;99.90;;;;;;5014239;28;20413;-68
2023/02/17 08:38:17;;;;;;;15.87;13.20;;;9.30;99.90;;;;;;5022380;28;20172;-69
2023/02/17 08:40:42;;;;;;;14.37;10.50;;;9.30;99.90;;;;;;5020880;28;20176;-68
2023/02/17 08:43:08;;;;;;;16.30;12.60;;;9.30;99.90;;;;;;5026792;28;20311;-69
2023/02/17 08:45:35;;;;;;;13.80;11.70;;;9.30;99.90;;;;;;5020814;28;20639;-68
2023/02/17 08:48:02;;;;;;;14.77;11.23;;;9.30;99.90;;;;;;5024598;28;20422;-67
2023/02/17 08:50:29;;;;;;;19.33;12.67;;;9.40;99.90;;;;;;5014923;28;20763;-69
2023/02/17 08:52:54;;;;;;;15.90;11.47;;;9.40;99.90;;;;;;5014598;28;20923;-68
2023/02/17 08:55:22;;;;;;;16.90;11.53;;;9.40;99.90;;;;;;5022983;28;20458;-68
2023/02/17 08:57:48;;;;;;;15.73;10.70;;;9.30;99.90;;;;;;5018817;28;20275;-68
2023/02/17 09:00:15;;;;;;;15.57;12.30;;;9.40;99.90;;;;;;4993530;28;20516;-68
2023/02/17 09:02:43;;;;;;;15.50;11.07;;;9.40;99.90;;;;;;5022233;28;20438;-69
2023/02/17 09:05:11;;;;;;;16.67;10.93;;;9.40;99.90;;;;;;5018855;28;20418;-68
2023/02/17 09:07:37;;;;;;;18.53;12.40;;;9.50;99.90;;;;;;5018457;28;20771;-70
2023/02/17 09:10:05;;;;;;;14.63;11.20;;;9.50;99.90;;;;;;5013695;28;20440;-69
2023/02/17 09:12:31;;;;;;;16.40;11.90;;;9.40;99.90;;;;;;5008348;28;20444;-69
2023/02/17 09:14:56;;;;;;;17.07;12.70;;;9.40;99.90;;;;;;5015089;28;20920;-68
2023/02/17 09:17:22;;;;;;;17.50;12.00;;;9.40;99.90;;;;;;5014471;28;20492;-68
2023/02/17 09:19:48;;;;;;;19.93;12.57;;;9.40;99.90;;;;;;5017092;28;20185;-67
2023/02/17 09:22:16;;;;;;;18.57;11.40;;;9.40;99.90;;;;;;5016571;28;20208;-69
2023/02/17 09:24:42;;;;;;;15.33;11.57;;;9.40;99.90;;;;;;5061379;22;20261;-73
2023/02/17 09:27:08;;;;;;;16.57;11.77;;;9.40;99.90;;;;;;5042685;28;20426;-73
2023/02/17 09:29:36;;;;;;;19.53;11.97;;;9.40;99.90;;;;;;5042521;28;20407;-72
2023/02/17 09:32:06;;;;;;;20.87;11.87;;;9.40;99.90;;;;;;5037583;28;20427;-72
2023/02/17 09:34:37;;;;;;;13.37;9.97;;;9.30;99.90;;;;;;5041194;28;20430;-73
2023/02/17 09:37:03;;;;;;;18.20;13.37;;;9.40;99.90;;;;;;5042525;28;20422;-73
2023/02/17 09:39:29;;;;;;;16.20;12.30;;;9.40;99.90;;;;;;5042017;28;20412;-72
2023/02/17 09:41:56;;;;;;;17.23;13.17;;;9.40;99.90;;;;;;5037365;28;20784;-73
2023/02/17 09:44:46;;;;;;;15.60;12.07;;;9.40;99.90;;;;;;5027549;28;20195;-74
2023/02/17 09:47:22;;;;;;;20.67;12.70;;;9.40;99.90;;;;;;5033686;28;20514;-74
2023/02/17 09:50:06;;;;;;;15.67;11.20;;;9.40;99.90;;;;;;5034211;28;20410;-73
2023/02/17 09:52:34;;;;;;;18.90;11.47;;;9.40;99.90;;;;;;5047102;28;20464;-73
2023/02/17 09:55:12;;;;;;;17.40;13.53;;;9.30;99.90;;;;;;5033939;28;20444;-73
2023/02/17 09:57:52;;;;;;;17.73;12.17;;;9.30;99.90;;;;;;5043202;28;20776;-74
2023/02/17 10:00:25;;;;;;;17.73;12.93;;;9.30;99.90;;;;;;5027781;28;20452;-74
2023/02/17 10:03:02;;;;;;;18.33;13.30;;;9.30;99.90;;;;;;5041002;28;20421;-73
2023/02/17 10:05:35;;;;;;;22.73;13.40;;;9.30;99.90;;;;;;5042301;28;20783;-75
2023/02/17 10:08:11;;;;;;;20.00;13.63;;;9.30;99.90;;;;;;5022817;28;20413;-75
2023/02/17 10:10:53;;;;;;;19.97;12.30;;;9.30;99.90;;;;;;5044849;28;20957;-74
2023/02/17 10:13:22;;;;;;;19.13;12.40;;;9.30;99.90;;;;;;5041748;28;20464;-74
2023/02/17 10:15:51;;;;;;;15.57;10.93;;;9.30;99.90;;;;;;5041490;28;20812;-74
2023/02/17 10:18:36;;;;;;;19.60;13.60;;;9.30;99.90;;;;;;5041369;28;20426;-72
2023/02/17 10:21:11;;;;;;;23.10;13.80;;;9.30;99.90;;;;;;5031960;28;20780;-73
2023/02/17 10:23:37;;;;;;;17.40;14.33;;;9.30;99.90;;;;;;5042521;28;20442;-74
2023/02/17 10:26:08;;;;;;;20.10;14.47;;;9.30;99.90;;;;;;5047301;28;20448;-74
2023/02/17 10:28:42;;;;;;;20.60;14.23;;;9.30;99.90;;;;;;5040005;28;20465;-72
2023/02/17 10:31:28;;;;;;;18.93;13.50;;;9.30;99.90;;;;;;5027955;28;20924;-73
2023/02/17 10:34:09;;;;;;;19.80;14.13;;;9.30;99.90;;;;;;5033556;28;20813;-73
2023/02/17 10:36:41;;;;;;;26.47;15.33;;;9.40;99.90;;;;;;5044885;28;20421;-73
2023/02/17 10:39:39;;;;;;;23.27;14.53;;;9.40;99.90;;;;;;5027568;28;20434;-73
2023/02/17 10:42:07;;;;;;;19.23;13.57;;;9.40;99.90;;;;;;5040197;28;20414;-74
2023/02/17 10:44:36;;;;;;;21.33;14.73;;;9.50;99.90;;;;;;5047865;28;20440;-74
2023/02/17 10:47:03;;;;;;;20.20;14.23;;;9.50;99.90;;;;;;5041035;28;21028;-72
2023/02/17 10:49:31;;;;;;;21.37;15.43;;;9.50;99.90;;;;;;5047486;28;20407;-73
2023/02/17 10:52:01;;;;;;;24.10;14.43;;;9.60;99.90;;;;;;5035249;28;20402;-73
2023/02/17 10:54:40;;;;;;;22.23;15.30;;;9.60;99.90;;;;;;5023269;28;20453;-74
2023/02/17 10:57:11;;;;;;;16.30;14.00;;;9.60;99.90;;;;;;5037156;28;20418;-74
2023/02/17 10:59:42;;;;;;;20.37;15.23;;;9.60;99.90;;;;;;5042344;28;20492;-74
2023/02/17 11:02:38;;;;;;;18.50;12.83;;;9.60;99.90;;;;;;5043598;28;20556;-74
2023/02/17 11:05:05;;;;;;;19.67;14.67;;;9.70;99.90;;;;;;5032465;28;20431;-73
2023/02/17 11:07:41;;;;;;;20.27;14.80;;;9.70;99.90;;;;;;5039678;28;20490;-73
2023/02/17 11:10:29;;;;;;;19.27;14.80;;;9.70;99.90;;;;;;5035287;28;20408;-72
2023/02/17 11:12:57;;;;;;;17.20;12.57;;;9.80;99.90;;;;;;5030522;28;20445;-73
2023/02/17 11:15:27;;;;;;;17.00;13.27;;;9.80;99.90;;;;;;5033019;28;20780;-73
2023/02/17 11:17:54;;;;;;;22.63;13.43;;;9.90;99.90;;;;;;5032246;28;20400;-73
2023/02/17 11:20:19;;;;;;;20.70;14.20;;;9.90;99.90;;;;;;5039789;28;20508;-74
2023/02/17 11:22:58;;;;;;;21.87;14.40;;;9.90;99.90;;;;;;5042525;28;20873;-74
2023/02/17 11:25:28;;;;;;;19.60;14.33;;;9.90;99.90;;;;;;5027527;28;20612;-74
2023/02/17 11:27:59;;;;;;;19.00;13.20;;;9.90;99.90;;;;;;5026251;28;20429;-74
2023/02/17 11:30:27;;;;;;;15.60;12.77;;;10.00;99.90;;;;;;5041973;28;20413;-74
2023/02/17 11:32:55;;;;;;;14.70;11.50;;;10.00;99.90;;;;;;5036827;28;20438;-73
2023/02/17 11:35:47;;;;;;;19.43;14.13;;;10.00;99.90;;;;;;5016454;28;20453;-73
2023/02/17 11:38:31;;;;;;;15.97;12.03;;;10.10;99.90;;;;;;5040232;28;20493;-73
2023/02/17 11:40:59;;;;;;;15.70;11.67;;;10.10;99.90;;;;;;5036332;28;20421;-74
2023/02/17 11:43:30;;;;;;;18.23;12.37;;;10.20;99.90;;;;;;5050802;28;20428;-75
2023/02/17 11:46:21;;;;;;;15.43;12.80;;;10.20;99.90;;;;;;5024229;28;20442;-73
2023/02/17 11:48:59;;;;;;;14.27;11.03;;;10.20;99.90;;;;;;5030052;28;20413;-72
2023/02/17 11:51:47;;;;;;;14.70;11.97;;;10.30;99.90;;;;;;5023647;28;20767;-73
2023/02/17 11:54:47;;;;;;;12.97;10.73;;;10.30;99.90;;;;;;5042024;28;20483;-74
2023/02/17 11:57:37;;;;;;;15.87;12.33;;;10.40;99.90;;;;;;5033457;28;20418;-75
2023/02/17 12:00:29;;;;;;;16.37;11.93;;;10.40;99.90;;;;;;5033231;28;20882;-73
2023/02/17 12:03:16;;;;;;;15.80;10.63;;;10.40;99.90;;;;;;5029668;28;20432;-70
2023/02/17 12:06:07;;;;;;;13.60;9.60;;;10.50;99.90;;;;;;5031715;28;20493;-70
2023/02/17 12:08:40;;;;;;;12.87;10.13;;;10.50;99.90;;;;;;5032275;28;21006;-70
2023/02/17 12:11:29;;;;;;;12.40;10.07;;;10.50;99.90;;;;;;5032006;28;20489;-69
2023/02/17 12:13:55;;;;;;;16.23;10.50;;;10.60;99.90;;;;;;5031769;28;20458;-71
2023/02/17 12:16:27;;;;;;;20.33;14.23;;;10.60;99.90;;;;;;5025794;28;20418;-72
2023/02/17 12:19:06;;;;;;;20.33;13.37;;;10.70;99.90;;;;;;5020805;28;20172;-70
2023/02/17 12:21:43;;;;;;;14.77;9.87;;;10.80;99.90;;;;;;5022887;28;20933;-70
2023/02/17 12:24:23;;;;;;;14.33;9.67;;;10.90;99.90;;;;;;5038758;28;20442;-70
2023/02/17 12:27:11;;;;;;;11.30;9.03;;;10.80;99.90;;;;;;5038809;28;20552;-71
2023/02/17 12:30:07;;;;;;;12.13;10.00;;;10.90;99.90;;;;;;4999886;28;20486;-70
2023/02/17 12:32:39;;;;;;;9.63;7.97;;;11.00;99.90;;;;;;5038508;28;20483;-70
2023/02/17 12:35:25;;;;;;;13.67;8.37;;;11.00;99.90;;;;;;5039661;28;20426;-71
2023/02/17 12:38:17;;;;;;;12.63;8.27;;;11.10;99.90;;;;;;5025187;28;20872;-70
2023/02/17 12:40:49;;;;;;;8.90;7.80;;;11.20;99.90;;;;;;5040055;28;20471;-70
2023/02/17 12:43:35;;;;;;;9.23;7.30;;;11.20;99.90;;;;;;5036665;28;20438;-71
2023/02/17 12:46:08;;;;;;;8.73;7.40;;;11.30;99.90;;;;;;5028406;28;20413;-71
2023/02/17 12:48:48;;;;;;;9.37;6.80;;;11.40;99.90;;;;;;5040286;28;20751;-69
2023/02/17 12:51:31;;;;;;;8.40;7.37;;;11.40;99.90;;;;;;5040584;28;20444;-70
2023/02/17 12:54:11;;;;;;;8.20;7.37;;;11.50;99.90;;;;;;5033460;28;20465;-70
2023/02/17 12:57:18;;;;;;;8.10;6.30;;;11.50;99.90;;;;;;5042150;28;20466;-70